Time;durP1;ratioP1;P1;durP2;ratioP2;P2;SDS_P1;SDS_P2;PMS_P1;PMS_P2;Temp;Humidity;BMP_temperature;BMP_pressure;BME280_temperature;BME280_humidity;BME280_pressure;Samples;Min_cycle;Max_cycle;Signal;HPM_P1;HPM_P2
2022/04/26 03:37:38;;;;;;;;;27.50;25.00;;;;;14.13;50.36;101136.44;5081371;27;45420;-69
2022/04/26 03:40:04;;;;;;;;;28.75;25.25;;;;;14.19;50.17;101146.94;5082194;27;45457;-70
2022/04/26 03:42:30;;;;;;;;;32.25;26.00;;;;;14.20;50.38;101148.69;5082398;27;47534;-69
2022/04/26 03:45:02;;;;;;;;;31.50;29.25;;;;;14.05;50.05;101118.06;5081325;27;45528;-70
2022/04/26 03:47:28;;;;;;;;;26.25;20.50;;;;;14.03;50.04;101111.91;5098045;27;45295;-68
2022/04/26 03:49:53;;;;;;;;;36.25;28.00;;;;;14.16;50.27;101144.31;5097254;27;45793;-70
2022/04/26 03:52:21;;;;;;;;;25.25;24.25;;;;;14.13;50.07;101137.31;5081877;27;46504;-71
2022/04/26 03:54:46;;;;;;;;;27.25;23.00;;;;;14.14;50.17;101130.28;5080453;27;45500;-68
2022/04/26 03:57:12;;;;;;;;;37.50;24.00;;;;;14.24;50.29;101142.53;5079943;27;45317;-68
2022/04/26 03:59:37;;;;;;;;;28.50;26.50;;;;;14.23;49.71;101143.38;5080929;27;45387;-69
2022/04/26 04:02:03;;;;;;;;;34.00;26.50;;;;;14.19;50.05;101136.41;5080096;27;45424;-68
2022/04/26 04:04:29;;;;;;;;;34.00;27.75;;;;;14.13;50.21;101128.53;5079779;27;45351;-69
2022/04/26 04:06:55;;;;;;;;;26.75;24.25;;;;;14.22;50.26;101144.28;5079987;27;45250;-69
2022/04/26 04:09:20;;;;;;;;;26.25;24.00;;;;;13.85;50.26;101086.56;5080204;27;45440;-69
2022/04/26 04:11:46;;;;;;;;;28.25;22.75;;;;;14.23;50.00;101156.56;5081169;27;45498;-69
2022/04/26 04:14:14;;;;;;;;;27.50;21.50;;;;;14.23;50.27;101156.56;5079544;27;45938;-67
2022/04/26 04:16:40;;;;;;;;;31.25;26.75;;;;;14.17;49.96;101152.22;5079696;27;45338;-69
2022/04/26 04:19:17;;;;;;;;;24.50;22.25;;;;;14.17;50.33;101154.84;5079556;27;45378;-70
2022/04/26 04:21:45;;;;;;;;;31.50;25.75;;;;;14.11;50.45;101154.88;5080340;27;46171;-71
2022/04/26 04:24:13;;;;;;;;;31.00;28.25;;;;;14.12;50.35;101161.91;5079454;27;45254;-69
2022/04/26 04:26:39;;;;;;;;;35.00;27.50;;;;;14.13;50.06;101166.28;5079266;27;45430;-69
2022/04/26 04:29:05;;;;;;;;;38.50;29.50;;;;;14.11;50.31;101161.91;5079566;28;45455;-71
2022/04/26 04:31:32;;;;;;;;;31.50;27.25;;;;;14.14;50.78;101167.16;5079004;27;46039;-69
2022/04/26 04:33:57;;;;;;;;;33.50;30.00;;;;;14.15;50.65;101171.56;5078883;27;45348;-69
2022/04/26 04:36:23;;;;;;;;;34.25;32.75;;;;;14.06;50.57;101166.34;5079248;27;45487;-69
2022/04/26 04:38:48;;;;;;;;;39.75;32.25;;;;;14.02;50.65;101181.25;5079541;28;45341;-71
2022/04/26 04:41:14;;;;;;;;;29.25;26.50;;;;;14.04;51.22;101190.03;5078801;28;46485;-69
2022/04/26 04:43:44;;;;;;;;;36.00;32.25;;;;;13.94;51.26;101175.16;5079060;27;45528;-68
2022/04/26 04:46:10;;;;;;;;;35.50;30.75;;;;;14.03;51.22;101195.31;5078791;27;45283;-69
2022/04/26 04:48:35;;;;;;;;;33.00;29.00;;;;;13.97;50.81;101180.41;5079196;27;45464;-70
2022/04/26 04:51:01;;;;;;;;;35.25;31.25;;;;;14.01;50.68;101190.06;5077158;28;46462;-69
2022/04/26 04:53:27;;;;;;;;;35.00;30.75;;;;;14.06;51.14;101190.91;5078995;28;45447;-69
2022/04/26 04:55:53;;;;;;;;;33.00;30.25;;;;;14.06;51.22;101188.28;5079380;28;45910;-69
2022/04/26 04:58:18;;;;;;;;;36.50;32.50;;;;;13.99;51.16;101190.06;5079003;27;45471;-69
2022/04/26 05:00:44;;;;;;;;;37.25;30.50;;;;;14.08;50.95;101204.94;5078595;28;45325;-70
2022/04/26 05:03:09;;;;;;;;;35.00;30.50;;;;;14.03;50.98;101187.44;5078843;28;46092;-70
2022/04/26 05:05:35;;;;;;;;;37.75;32.00;;;;;13.97;50.46;101189.19;5078858;27;45224;-70
2022/04/26 05:08:01;;;;;;;;;34.75;31.75;;;;;14.05;51.26;101198.81;5078880;28;45471;-69
2022/04/26 05:10:26;;;;;;;;;31.75;29.25;;;;;14.07;51.03;101212.84;5078360;27;45359;-70
2022/04/26 05:12:52;;;;;;;;;32.50;28.00;;;;;14.13;50.89;101218.97;5078922;27;45302;-70
2022/04/26 05:15:18;;;;;;;;;38.00;32.00;;;;;14.14;51.00;101220.72;5078426;27;45275;-71
2022/04/26 05:17:44;;;;;;;;;40.25;34.00;;;;;13.93;51.24;101181.34;5078381;27;45445;-70
2022/04/26 05:20:10;;;;;;;;;43.00;37.00;;;;;14.16;50.79;101225.97;5078106;27;45589;-70
2022/04/26 05:24:53;;;;;;;;;41.75;35.75;;;;;14.08;51.07;101222.50;5078352;27;45754;-69
2022/04/26 05:25:21;;;;;;;;;40.00;33.50;;;;;14.16;51.19;101234.75;5077549;28;45209;-68
2022/04/26 05:27:47;;;;;;;;;38.50;33.75;;;;;14.18;51.04;101235.63;5078479;27;45480;-70
2022/04/26 05:30:13;;;;;;;;;34.50;32.00;;;;;14.10;51.14;101226.88;5077893;27;45379;-68
2022/04/26 05:32:38;;;;;;;;;33.75;28.00;;;;;14.19;51.31;101239.16;5078221;27;45309;-69
2022/04/26 05:35:05;;;;;;;;;39.75;34.25;;;;;14.18;50.78;101242.66;5077311;27;45502;-70
2022/04/26 05:37:32;;;;;;;;;44.50;37.75;;;;;14.14;51.18;101251.44;5078561;27;45243;-68
2022/04/26 05:40:01;;;;;;;;;36.75;33.25;;;;;14.10;51.55;101258.50;5078104;27;45377;-68
2022/04/26 05:42:31;;;;;;;;;36.50;32.25;;;;;14.12;51.19;101255.88;5076524;27;45642;-68
2022/04/26 05:44:57;;;;;;;;;41.25;33.00;;;;;14.15;51.11;101258.47;5078368;28;45432;-68
2022/04/26 05:47:23;;;;;;;;;45.25;34.00;;;;;14.16;51.09;101261.09;5078608;27;45256;-68
2022/04/26 05:49:49;;;;;;;;;41.75;34.25;;;;;14.09;51.01;101254.09;5077821;27;45251;-69
2022/04/26 05:52:15;;;;;;;;;40.50;34.75;;;;;13.98;51.10;101240.13;5078095;27;45370;-70
2022/04/26 05:54:40;;;;;;;;;51.75;40.25;;;;;14.11;51.28;101262.88;5077697;27;45484;-69
2022/04/26 05:57:06;;;;;;;;;44.75;35.00;;;;;14.17;51.77;101267.25;5077984;27;45227;-68
2022/04/26 05:59:31;;;;;;;;;44.25;36.75;;;;;14.19;51.52;101273.41;5077832;27;45449;-68
2022/04/26 06:01:57;;;;;;;;;48.75;35.25;;;;;14.20;51.04;101273.38;5078310;27;45438;-71
2022/04/26 06:04:24;;;;;;;;;43.00;34.50;;;;;14.21;50.90;101276.88;5078088;27;45841;-69
2022/04/26 06:06:51;;;;;;;;;52.00;41.75;;;;;14.11;51.59;101275.16;5078122;27;45457;-69
2022/04/26 06:09:17;;;;;;;;;56.00;41.75;;;;;14.00;52.28;101270.84;5077619;27;45397;-68
2022/04/26 06:11:43;;;;;;;;;64.25;47.75;;;;;13.88;51.72;101276.16;5077354;27;45449;-68
2022/04/26 06:14:09;;;;;;;;;53.00;43.25;;;;;13.61;52.56;101248.13;5077685;27;45536;-69
2022/04/26 06:16:34;;;;;;;;;57.50;45.25;;;;;13.61;52.78;101263.03;5076479;27;45356;-68
2022/04/26 06:19:00;;;;;;;;;57.50;40.25;;;;;13.69;52.34;101269.16;5077664;28;45438;-69
2022/04/26 06:21:26;;;;;;;;;48.25;38.25;;;;;13.76;52.38;101269.16;5078034;27;45400;-70
2022/04/26 06:23:51;;;;;;;;;48.00;36.75;;;;;13.85;52.12;101268.22;5077677;27;45367;-71
2022/04/26 06:26:17;;;;;;;;;45.25;35.50;;;;;13.91;52.22;101255.06;5077543;28;45480;-70
2022/04/26 06:28:43;;;;;;;;;44.50;36.00;;;;;14.04;51.64;101255.88;5075977;27;47890;-69
2022/04/26 06:31:08;;;;;;;;;50.50;37.75;;;;;14.20;52.10;101264.59;5075889;27;45327;-70
2022/04/26 06:33:34;;;;;;;;;48.75;36.25;;;;;14.30;51.24;101268.06;5076211;27;45303;-69
2022/04/26 06:36:00;;;;;;;;;50.50;37.00;;;;;14.28;51.39;101257.53;5077875;27;45584;-69
2022/04/26 06:38:26;;;;;;;;;45.25;38.25;;;;;14.53;53.06;101275.84;5077820;27;46098;-68
2022/04/26 06:40:52;;;;;;;;;51.50;41.25;;;;;14.64;51.31;101266.16;5077087;27;45294;-68
2022/04/26 06:43:18;;;;;;;;;50.75;39.25;;;;;14.84;51.78;101281.84;5077464;27;45485;-69
2022/04/26 06:45:46;;;;;;;;;50.75;40.75;;;;;14.97;50.61;101286.16;5077201;27;45507;-70
2022/04/26 06:48:12;;;;;;;;;49.00;39.00;;;;;15.06;50.25;101282.56;5076692;27;46247;-69
2022/04/26 06:50:39;;;;;;;;;51.50;38.50;;;;;15.13;49.79;101289.53;5076743;27;45416;-69
2022/04/26 06:53:05;;;;;;;;;53.50;40.75;;;;;15.20;50.12;101291.22;5077042;28;45184;-69
2022/04/26 06:55:31;;;;;;;;;45.75;37.00;;;;;15.23;49.87;101288.59;5077416;27;45173;-69
2022/04/26 06:57:56;;;;;;;;;55.25;39.25;;;;;15.31;49.82;101290.28;5077140;27;46191;-71
2022/04/26 07:00:28;;;;;;;;;50.50;39.50;;;;;15.34;49.32;101295.53;5077340;27;45509;-70
2022/04/26 07:02:54;;;;;;;;;49.75;37.50;;;;;15.34;49.09;101285.84;5076277;27;45271;-72
2022/04/26 07:05:21;;;;;;;;;66.75;47.75;;;;;15.20;49.34;101303.56;5077516;27;45330;-71
2022/04/26 07:07:49;;;;;;;;;52.00;42.00;;;;;15.14;49.08;101299.22;5077540;27;45557;-69
2022/04/26 07:10:15;;;;;;;;;54.00;41.50;;;;;15.07;49.59;101286.97;5077361;27;45421;-73
2022/04/26 07:12:40;;;;;;;;;61.50;45.25;;;;;14.98;49.38;101274.72;5076955;27;45421;-71
2022/04/26 07:15:06;;;;;;;;;57.25;44.50;;;;;14.82;49.38;101267.78;5077030;27;45400;-69
2022/04/26 07:17:32;;;;;;;;;60.75;45.00;;;;;14.87;49.89;101315.22;5076841;27;46149;-70
2022/04/26 07:19:58;;;;;;;;;60.50;43.25;;;;;14.85;49.57;101315.22;5076886;27;45485;-71
2022/04/26 07:22:25;;;;;;;;;54.50;44.00;;;;;14.61;50.26;101293.41;5076522;27;45307;-70
2022/04/26 07:24:54;;;;;;;;;55.50;44.00;;;;;14.76;49.92;101326.72;5070176;27;45589;-70
2022/04/26 07:27:20;;;;;;;;;62.25;48.50;;;;;14.50;50.29;101312.75;5060248;27;45701;-74
2022/04/26 07:29:50;;;;;;;;;58.00;44.75;;;;;14.38;50.93;101319.84;5056074;28;45684;-68
2022/04/26 07:32:16;;;;;;;;;50.75;39.75;;;;;14.37;50.26;101322.50;5056208;28;45507;-69
2022/04/26 07:34:42;;;;;;;;;60.25;45.25;;;;;14.23;50.64;101321.66;5068357;28;45370;-70
2022/04/26 07:37:08;;;;;;;;;60.00;45.75;;;;;14.16;51.35;101331.34;5075122;27;45297;-69
2022/04/26 07:39:35;;;;;;;;;54.25;43.25;;;;;14.28;50.85;101326.03;5092012;27;46010;-70
2022/04/26 07:42:02;;;;;;;;;52.75;38.75;;;;;14.42;50.73;101326.84;5076387;27;45431;-71
2022/04/26 07:44:29;;;;;;;;;55.75;43.00;;;;;14.58;50.37;101335.59;5076356;27;45464;-70
2022/04/26 07:46:55;;;;;;;;;52.75;38.25;;;;;14.67;50.53;101326.78;5076327;27;46197;-72
2022/04/26 07:49:26;;;;;;;;;45.75;38.00;;;;;14.85;49.59;101341.59;5075809;28;45387;-71
2022/04/26 07:51:52;;;;;;;;;50.75;40.25;;;;;14.82;49.61;101331.94;5073496;28;45372;-71
2022/04/26 07:54:19;;;;;;;;;51.00;38.00;;;;;14.97;49.49;101345.91;5076032;27;45559;-73
2022/04/26 07:56:45;;;;;;;;;49.25;36.75;;;;;15.03;49.58;101343.25;5075870;27;45418;-71
2022/04/26 07:59:17;;;;;;;;;55.00;39.50;;;;;14.99;49.54;101328.31;5078912;27;45456;-72
2022/04/26 08:01:43;;;;;;;;;50.00;40.00;;;;;15.05;49.17;101350.28;5078852;27;45546;-72
2022/04/26 08:04:08;;;;;;;;;48.00;36.25;;;;;15.19;49.27;101360.75;5079003;27;45397;-71
2022/04/26 08:06:34;;;;;;;;;49.50;39.00;;;;;15.23;48.84;101365.13;5078588;27;46626;-71
2022/04/26 08:08:59;;;;;;;;;47.00;38.50;;;;;15.26;48.78;101351.03;5080275;28;45401;-72
2022/04/26 08:11:31;;;;;;;;;53.00;37.75;;;;;15.38;48.40;101350.91;5080532;27;45360;-71
2022/04/26 08:13:57;;;;;;;;;51.25;39.75;;;;;15.53;48.26;101363.09;5080715;27;45609;-70
2022/04/26 08:16:23;;;;;;;;;52.25;40.25;;;;;15.61;47.76;101365.66;5082206;27;45489;-73
2022/04/26 08:18:48;;;;;;;;;43.75;36.25;;;;;15.64;48.19;101357.75;5081674;27;45724;-72
2022/04/26 08:21:14;;;;;;;;;51.50;41.75;;;;;15.77;48.18;101369.09;5082910;27;45255;-72
2022/04/26 08:29:39;;;;;;;;;57.25;44.25;;;;;15.70;47.54;101347.16;5083150;28;45341;-68
2022/04/26 08:32:05;;;;;;;;;61.25;45.25;;;;;15.72;47.25;101376.19;5082506;27;45389;-70
2022/04/26 08:34:31;;;;;;;;;52.75;43.25;;;;;15.62;47.28;101378.00;5082729;27;45481;-70
2022/04/26 08:36:58;;;;;;;;;51.75;40.25;;;;;15.66;47.76;101383.25;5081205;27;45359;-69
2022/04/26 08:39:26;;;;;;;;;54.25;43.50;;;;;15.67;47.53;101363.88;5081764;27;45452;-70
2022/04/26 08:41:59;;;;;;;;;52.25;42.75;;;;;15.64;47.78;101365.66;5082045;27;45515;-69
2022/04/26 08:44:28;;;;;;;;;49.75;39.25;;;;;15.76;47.86;101380.56;5081667;27;45511;-70
2022/04/26 08:52:24;;;;;;;;;49.75;39.25;;;;;16.03;46.19;101388.19;5079479;27;45432;-70
2022/04/26 08:54:50;;;;;;;;;44.75;36.25;;;;;16.19;46.46;101393.34;5080327;27;45406;-70
2022/04/26 08:57:16;;;;;;;;;41.25;35.25;;;;;16.25;46.70;101395.91;5079664;27;45506;-69
2022/04/26 08:59:49;;;;;;;;;53.00;41.50;;;;;16.27;45.67;101408.19;5078762;27;46492;-69
2022/04/26 09:02:20;;;;;;;;;57.50;42.50;;;;;16.23;46.08;101405.59;5078758;27;45319;-69
2022/04/26 09:05:08;;;;;;;;;45.75;38.00;;;;;16.17;45.75;101406.56;5079005;27;45543;-69
2022/04/26 09:07:37;;;;;;;;;49.00;37.25;;;;;16.16;45.80;101407.47;5079231;28;46356;-69
2022/04/26 09:10:15;;;;;;;;;54.50;40.50;;;;;16.07;45.45;101405.78;5077197;27;45263;-69
2022/04/26 09:13:04;;;;;;;;;52.00;38.00;;;;;16.07;45.49;101407.56;5030085;27;46030;-71
2022/04/26 09:15:38;;;;;;;;;55.00;39.75;;;;;16.02;45.29;101397.03;5019127;28;45314;-72
2022/04/26 09:18:27;;;;;;;;;49.50;39.25;;;;;16.29;45.48;101424.06;5033302;28;46912;-69
2022/04/26 09:21:10;;;;;;;;;58.00;42.50;;;;;16.37;45.42;101424.84;5016622;28;45392;-71
2022/04/26 09:23:39;;;;;;;;;48.25;38.00;;;;;16.49;45.31;101426.47;5016775;28;45499;-69
2022/04/26 09:26:12;;;;;;;;;45.50;36.00;;;;;16.50;44.84;101404.44;5018184;28;45624;-70
2022/04/26 09:28:43;;;;;;;;;51.25;39.50;;;;;16.66;44.10;101415.72;5029488;28;46793;-70
2022/04/26 09:31:29;;;;;;;;;49.75;39.50;;;;;16.69;43.92;101434.19;4997916;28;45480;-72
2022/04/26 09:34:06;;;;;;;;;45.00;37.50;;;;;16.56;43.63;101424.63;5017289;28;45786;-68
2022/04/26 09:36:43;;;;;;;;;44.00;35.00;;;;;16.68;43.61;101449.19;5015858;28;45477;-68
2022/04/26 09:39:09;;;;;;;;;40.25;34.25;;;;;16.64;44.01;101436.03;5016954;28;45466;-71
2022/04/26 09:41:35;;;;;;;;;50.75;39.25;;;;;16.51;43.73;101438.81;5016835;28;45897;-70
2022/04/26 09:44:08;;;;;;;;;54.50;40.00;;;;;16.51;44.15;101454.69;5017978;28;45883;-71
2022/04/26 09:46:40;;;;;;;;;58.50;43.75;;;;;16.23;44.38;101439.97;5017945;28;45456;-69
2022/04/26 09:49:09;;;;;;;;;60.75;46.00;;;;;15.64;45.21;101421.13;5017606;28;46659;-69
2022/04/26 09:51:36;;;;;;;;;57.50;44.25;;;;;15.55;45.90;101443.19;5017460;28;45418;-69
2022/04/26 09:54:04;;;;;;;;;58.00;47.50;;;;;15.25;46.73;101423.13;5013200;28;45473;-71
2022/04/26 09:56:31;;;;;;;;;49.50;40.00;;;;;15.36;47.19;101444.19;5012044;28;45559;-69
2022/04/26 09:58:58;;;;;;;;;44.25;35.50;;;;;15.36;46.75;101431.00;5013925;28;45657;-71
2022/04/26 10:01:30;;;;;;;;;50.25;39.25;;;;;15.46;46.51;101456.44;5013967;28;45358;-69
2022/04/26 10:04:03;;;;;;;;;49.75;40.75;;;;;15.53;47.95;101460.78;5015378;28;45433;-72
2022/04/26 10:06:37;;;;;;;;;51.00;38.75;;;;;15.62;47.23;101465.16;5014605;28;45454;-69
2022/04/26 10:09:05;;;;;;;;;54.50;41.75;;;;;15.63;46.29;101457.19;5014988;28;45247;-70
2022/04/26 10:11:31;;;;;;;;;47.25;37.50;;;;;15.74;46.23;101469.50;5014743;28;45358;-69
2022/04/26 10:14:00;;;;;;;;;51.25;38.25;;;;;15.76;46.24;101462.44;5014985;28;45669;-69
2022/04/26 10:16:26;;;;;;;;;46.25;38.00;;;;;15.80;45.87;101457.13;5014155;28;45566;-69
2022/04/26 10:19:02;;;;;;;;;49.25;35.75;;;;;15.86;45.77;101454.41;5014508;28;46197;-70
2022/04/26 10:21:27;;;;;;;;;50.25;39.00;;;;;16.01;50.28;101461.31;5013921;28;45450;-70
2022/04/26 10:24:02;;;;;;;;;47.50;36.75;;;;;16.11;47.39;101463.00;5014471;28;45398;-69
2022/04/26 10:26:30;;;;;;;;;50.25;37.25;;;;;16.23;47.60;101469.94;5014542;28;45441;-69
2022/04/26 10:29:04;;;;;;;;;57.00;42.50;;;;;16.37;46.80;101469.78;5013850;28;45597;-69
2022/04/26 10:31:55;;;;;;;;;56.25;47.25;;;;;16.46;46.78;101466.19;5012916;28;45500;-69
2022/04/26 10:34:27;;;;;;;;;55.50;37.25;;;;;16.70;47.86;101470.31;5013070;28;45441;-68
2022/04/26 10:37:11;;;;;;;;;50.25;38.50;;;;;17.00;46.78;101466.44;5014451;28;45891;-71
2022/04/26 10:39:45;;;;;;;;;47.25;39.50;;;;;17.22;44.92;101455.56;5021374;28;47808;-70
2022/04/26 10:42:16;;;;;;;;;41.25;34.50;;;;;17.66;45.58;101477.88;5013677;28;45477;-69
2022/04/26 10:44:46;;;;;;;;;46.00;37.75;;;;;17.92;44.47;101478.38;5014711;28;45493;-70
2022/04/26 10:47:20;;;;;;;;;38.00;33.50;;;;;18.07;44.73;101471.06;5013454;28;45452;-70
2022/04/26 10:49:47;;;;;;;;;57.25;43.25;;;;;18.04;42.23;101456.09;5014919;28;45422;-71
2022/04/26 10:52:25;;;;;;;;;54.25;43.50;;;;;17.89;41.73;101473.13;5011743;28;46505;-72
2022/04/26 10:55:02;;;;;;;;;55.75;42.00;;;;;17.70;41.84;101471.63;5014711;28;45478;-70
2022/04/26 10:57:36;;;;;;;;;56.00;42.50;;;;;17.48;42.19;101471.94;5016140;28;46546;-69
2022/04/26 11:00:22;;;;;;;;;48.00;38.25;;;;;17.30;43.32;101457.22;5016038;28;45478;-69
2022/04/26 11:02:50;;;;;;;;;53.00;40.75;;;;;17.43;42.30;101472.94;5024938;28;45410;-69
2022/04/26 11:05:25;;;;;;;;;49.25;40.50;;;;;17.39;42.92;101469.44;5016924;28;45359;-70
2022/04/26 11:07:51;;;;;;;;;45.25;36.00;;;;;17.42;42.76;101469.41;5016095;28;45450;-70
2022/04/26 11:10:20;;;;;;;;;43.75;35.75;;;;;17.50;42.68;101477.25;5012397;28;45945;-68
2022/04/26 11:12:45;;;;;;;;;43.00;35.75;;;;;17.52;42.66;101459.56;5015396;28;45481;-70
2022/04/26 11:15:21;;;;;;;;;42.00;33.50;;;;;17.55;42.08;101451.56;5018223;28;45430;-72
2022/04/26 11:17:49;;;;;;;;;39.00;35.00;;;;;17.64;41.56;101475.25;5011521;28;45466;-72
2022/04/26 11:20:20;;;;;;;;;39.00;33.50;;;;;17.66;41.63;101460.22;5013472;28;47093;-72
2022/04/26 11:22:49;;;;;;;;;40.25;35.25;;;;;17.74;41.50;101455.66;5017422;28;45554;-72
2022/04/26 11:28:06;;;;;;;;;46.00;35.75;;;;;17.66;41.11;101460.22;5012339;28;45342;-69
2022/04/26 11:30:37;;;;;;;;;44.75;35.75;;;;;17.56;41.59;101458.63;5012864;28;46626;-70
2022/04/26 11:33:05;;;;;;;;;44.75;35.75;;;;;17.56;41.53;101466.56;5017100;28;45480;-72
2022/04/26 11:35:31;;;;;;;;;49.50;40.25;;;;;17.47;41.49;101458.75;5019337;28;45551;-72
2022/04/26 11:38:13;;;;;;;;;47.50;37.75;;;;;17.51;41.83;101461.34;5019054;28;45576;-70
2022/04/26 11:40:42;;;;;;;;;36.50;31.50;;;;;17.62;41.98;101465.59;5014557;28;46814;-72
2022/04/26 11:43:14;;;;;;;;;44.75;33.75;;;;;17.84;41.79;101460.84;5017167;28;45522;-70
2022/04/26 11:45:42;;;;;;;;;45.00;36.75;;;;;17.93;41.66;101461.56;5017703;28;45310;-75
2022/04/26 11:48:11;;;;;;;;;50.25;37.00;;;;;17.95;41.38;101456.25;5016845;28;45533;-69
2022/04/26 11:50:37;;;;;;;;;41.50;31.00;;;;;18.07;41.39;101466.63;5017403;28;45561;-68
2022/04/26 11:53:07;;;;;;;;;41.00;33.00;;;;;18.19;40.81;101469.06;5018060;28;45540;-71
2022/04/26 11:55:44;;;;;;;;;36.75;33.50;;;;;18.29;40.86;101458.28;5011791;28;45459;-71
2022/04/26 11:58:19;;;;;;;;;36.50;31.75;;;;;18.19;40.71;101431.94;4997818;28;45442;-72
2022/04/26 12:00:55;;;;;;;;;38.75;31.50;;;;;18.31;40.42;101456.47;5016817;28;46286;-75
2022/04/26 12:03:24;;;;;;;;;38.25;32.25;;;;;18.32;40.55;101459.13;5015933;28;45950;-71
2022/04/26 12:06:04;;;;;;;;;40.75;30.25;;;;;18.27;40.65;101463.63;5016196;28;45529;-68
2022/04/26 12:08:38;;;;;;;;;44.25;33.00;;;;;18.06;40.58;101430.44;5015536;28;45590;-71
2022/04/26 12:11:27;;;;;;;;;44.75;34.75;;;;;18.26;40.71;101471.59;5016557;28;45386;-72
2022/04/26 12:14:06;;;;;;;;;106.00;88.75;;;;;18.19;42.45;101465.53;5016244;28;45351;-73
2022/04/26 12:16:36;;;;;;;;;58.50;48.00;;;;;18.12;41.04;101466.56;5014996;28;45606;-72
2022/04/26 12:19:04;;;;;;;;;50.50;38.75;;;;;18.14;40.48;101457.66;5018247;28;45577;-70
2022/04/26 12:21:49;;;;;;;;;44.50;34.50;;;;;18.20;40.84;101468.16;5012944;28;45482;-71
2022/04/26 12:24:22;;;;;;;;;37.25;32.25;;;;;18.29;40.97;101471.53;4995498;28;45375;-74
2022/04/26 12:26:55;;;;;;;;;54.75;43.25;;;;;18.29;41.26;101451.19;5008981;28;45596;-71
2022/04/26 12:29:39;;;;;;;;;45.75;36.50;;;;;18.18;40.83;101430.19;5022915;28;45585;-71
2022/04/26 12:32:07;;;;;;;;;36.00;31.50;;;;;18.36;40.55;101460.78;5015691;28;45811;-70
2022/04/26 12:34:33;;;;;;;;;44.50;36.50;;;;;18.08;40.44;101446.28;5016175;28;45450;-71
2022/04/26 12:37:07;;;;;;;;;43.50;32.00;;;;;18.16;41.08;101466.47;5015616;28;45489;-71
2022/04/26 12:39:38;;;;;;;;;36.00;31.00;;;;;18.26;40.80;101464.53;5014546;28;46406;-72
2022/04/26 12:42:04;;;;;;;;;40.00;33.50;;;;;18.40;41.01;101457.19;5016166;28;45521;-72
2022/04/26 12:44:30;;;;;;;;;48.25;35.00;;;;;18.40;39.90;101449.22;5010408;28;45595;-72
2022/04/26 12:52:55;;;;;;;;;33.50;29.25;;;;;18.40;40.41;101448.34;5014899;28;45783;-73
2022/04/26 12:55:40;;;;;;;;;35.50;30.00;;;;;18.47;40.12;101444.69;5010967;28;45475;-71
2022/04/26 12:58:19;;;;;;;;;36.00;31.00;;;;;18.48;40.43;101438.47;5014523;28;45634;-72
2022/04/26 13:00:58;;;;;;;;;28.33;27.00;;;;;18.46;39.77;101426.13;5015794;28;46087;-69
2022/04/26 13:03:24;;;;;;;;;46.50;35.00;;;;;18.33;39.43;101450.25;5010364;28;48137;-72
2022/04/26 13:05:54;;;;;;;;;33.50;31.25;;;;;18.08;39.87;101452.50;5017165;28;45413;-73
2022/04/26 13:08:21;;;;;;;;;26.00;23.33;;;;;18.20;40.36;101449.63;5020402;28;45333;-72
2022/04/26 13:10:48;;;;;;;;;31.25;27.00;;;;;18.33;39.71;101452.03;5019674;28;45382;-72
2022/04/26 13:13:35;;;;;;;;;33.50;29.75;;;;;18.28;40.18;101415.00;5020795;28;46093;-70
2022/04/26 13:16:02;;;;;;;;;29.25;26.25;;;;;18.55;39.50;101415.34;5027374;28;45304;-72
2022/04/26 13:18:31;;;;;;;;;33.50;31.50;;;;;18.60;38.35;101395.78;5036505;28;45430;-71
2022/04/26 13:20:57;;;;;;;;;37.50;30.25;;;;;18.91;38.17;101445.59;5038271;28;45380;-71
2022/04/26 13:23:24;;;;;;;;;21.67;20.00;;;;;18.93;38.58;101419.88;5037425;28;45646;-68
2022/04/26 13:25:51;;;;;;;;;25.33;25.00;;;;;19.07;38.02;101427.53;5032594;28;45430;-71
2022/04/26 13:28:17;;;;;;;;;29.33;25.33;;;;;19.11;37.79;101438.97;4998015;28;45308;-71
2022/04/26 13:30:43;;;;;;;;;21.67;19.33;;;;;18.91;37.75;101399.59;5016652;28;45436;-73
2022/04/26 13:33:09;;;;;;;;;34.50;31.50;;;;;19.11;37.18;101433.66;5037197;28;45645;-70
2022/04/26 13:35:39;;;;;;;;;27.25;27.00;;;;;18.81;37.13;101436.06;5031463;28;45415;-70
2022/04/26 13:38:14;;;;;;;;;35.75;29.00;;;;;18.58;37.62;101412.63;5020408;28;45333;-69
2022/04/26 13:40:40;;;;;;;;;38.00;31.25;;;;;18.34;37.93;101417.53;5035535;28;45544;-72
2022/04/26 13:43:08;;;;;;;;;30.00;25.67;;;;;18.15;38.48;101424.97;5020099;28;45688;-72
2022/04/26 13:45:39;;;;;;;;;25.00;24.33;;;;;18.14;38.69;101415.25;5002255;28;45329;-72
2022/04/26 13:48:10;;;;;;;;;23.33;18.33;;;;;18.09;39.43;101385.31;4998086;28;45504;-74
2022/04/26 13:50:36;;;;;;;;;22.33;19.33;;;;;18.41;38.99;101418.25;4997198;28;45340;-71
2022/04/26 13:53:01;;;;;;;;;21.00;18.33;;;;;18.60;38.96;101418.78;4997069;28;45426;-72
2022/04/26 13:55:27;;;;;;;;;20.00;17.67;;;;;18.65;38.84;101404.53;4996758;28;45954;-72
2022/04/26 13:57:54;;;;;;;;;18.33;17.67;;;;;18.85;38.64;101421.84;5019008;28;45475;-72
2022/04/26 14:00:21;;;;;;;;;23.33;22.00;;;;;18.64;37.98;101372.72;5037227;28;46206;-71
2022/04/26 14:02:50;;;;;;;;;22.67;21.67;;;;;18.77;38.26;101392.81;5034045;28;45576;-72
2022/04/26 14:05:17;;;;;;;;;23.00;21.33;;;;;18.91;38.02;101413.75;5007201;28;45856;-70
2022/04/26 14:07:47;;;;;;;;;21.67;18.33;;;;;18.78;37.94;101393.69;5009407;28;45469;-71
2022/04/26 14:10:19;;;;;;;;;20.67;19.33;;;;;18.90;37.94;101401.38;5011798;28;45502;-70
2022/04/26 14:13:00;;;;;;;;;21.33;18.33;;;;;19.11;37.61;101407.13;5011562;28;46356;-71
2022/04/26 14:24:07;;;;;;;;;16.00;14.67;;;;;19.94;37.13;101371.44;5012486;28;45482;-69
2022/04/26 14:26:49;;;;;;;;;17.33;15.33;;;;;20.13;36.82;101396.59;5030987;28;45620;-70
2022/04/26 14:29:29;;;;;;;;;16.00;14.00;;;;;20.00;36.53;101365.06;5031825;28;45536;-71
2022/04/26 14:32:07;;;;;;;;;15.67;13.00;;;;;19.87;36.42;101343.25;5031319;28;45758;-72
2022/04/26 14:34:51;;;;;;;;;18.67;15.67;;;;;20.07;36.50;101394.13;5024765;28;46214;-71
2022/04/26 14:37:19;;;;;;;;;19.33;18.00;;;;;19.94;36.65;101392.69;5017153;28;45775;-72
2022/04/26 14:39:51;;;;;;;;;16.33;15.00;;;;;19.79;37.05;101399.28;5011622;28;45521;-71
2022/04/26 14:42:24;;;;;;;;;15.00;15.00;;;;;19.56;36.78;101364.44;5012154;28;45813;-70
2022/04/26 14:44:53;;;;;;;;;24.00;23.00;;;;;19.40;36.84;101364.78;5010927;28;45513;-71
2022/04/26 14:47:26;;;;;;;;;23.67;22.67;;;;;19.33;37.16;101388.91;5018148;28;45734;-69
2022/04/26 14:49:59;;;;;;;;;24.33;18.67;;;;;19.07;37.28;101383.28;5011690;28;45822;-70
2022/04/26 14:52:36;;;;;;;;;16.00;15.00;;;;;19.09;37.29;101401.84;5010751;28;45648;-71
2022/04/26 14:55:15;;;;;;;;;18.00;14.33;;;;;19.07;37.94;101399.19;5010670;28;46981;-71
2022/04/26 14:57:43;;;;;;;;;19.00;16.33;;;;;18.74;37.31;101352.16;5008547;28;45446;-73
2022/04/26 15:00:13;;;;;;;;;20.00;15.33;;;;;18.92;37.41;101406.66;5004685;28;45449;-71
2022/04/26 15:02:43;;;;;;;;;17.33;16.00;;;;;18.77;37.56;101413.16;5010570;28;45903;-71
2022/04/26 15:05:13;;;;;;;;;23.33;22.33;;;;;18.41;37.83;101373.19;5007309;28;46214;-71
2022/04/26 15:10:29;;;;;;;;;15.67;14.00;;;;;18.29;38.05;101378.72;5006114;28;46055;-71
2022/04/26 15:18:40;;;;;;;;;20.67;18.33;;;;;18.24;37.91;101397.38;5010935;28;45991;-69
2022/04/26 15:21:09;;;;;;;;;19.00;15.67;;;;;18.08;37.79;101391.53;5010337;28;45567;-71
2022/04/26 15:23:42;;;;;;;;;17.67;13.67;;;;;18.08;37.72;101388.88;5011123;28;45573;-68
2022/04/26 15:26:11;;;;;;;;;15.67;13.67;;;;;17.93;37.96;101360.84;5010131;28;45869;-69
2022/04/26 15:28:39;;;;;;;;;13.67;11.00;;;;;18.16;37.77;101408.13;4991473;28;45609;-69
2022/04/26 15:31:06;;;;;;;;;15.67;14.67;;;;;17.83;37.73;101363.72;4990547;28;46097;-70
2022/04/26 15:33:35;;;;;;;;;14.00;12.67;;;;;18.10;37.88;101405.59;5007628;28;45583;-68